sensor_id;sensor_type;location;lat;lon;timestamp;pressure;altitude;pressure_sealevel;temperature;humidity
54503;BME280;40411;50.090;21.954;2023-07-20T00:01:24;9954.97;;;18.12;100.00
54503;BME280;40411;50.090;21.954;2023-07-20T00:03:50;10287.38;;;18.07;100.00
54503;BME280;40411;50.090;21.954;2023-07-20T00:06:26;10287.16;;;18.06;100.00
54503;BME280;40411;50.090;21.954;2023-07-20T00:08:56;9955.09;;;18.13;100.00
54503;BME280;40411;50.090;21.954;2023-07-20T00:11:27;10288.97;;;18.14;100.00
54503;BME280;40411;50.090;21.954;2023-07-20T00:13:53;10288.06;;;18.10;100.00
54503;BME280;40411;50.090;21.954;2023-07-20T00:16:19;9956.28;;;18.18;100.00
54503;BME280;40411;50.090;21.954;2023-07-20T00:18:45;9955.84;;;18.16;100.00
54503;BME280;40411;50.090;21.954;2023-07-20T00:21:10;9956.53;;;18.19;100.00
54503;BME280;40411;50.090;21.954;2023-07-20T00:23:37;9958.16;;;18.27;100.00
54503;BME280;40411;50.090;21.954;2023-07-20T00:26:03;9957.41;;;18.23;100.00
54503;BME280;40411;50.090;21.954;2023-07-20T00:28:29;10289.97;;;18.19;100.00
54503;BME280;40411;50.090;21.954;2023-07-20T00:30:55;10289.63;;;18.17;100.00
54503;BME280;40411;50.090;21.954;2023-07-20T00:33:21;10621.72;;;18.11;100.00
54503;BME280;40411;50.090;21.954;2023-07-20T00:35:46;10953.53;;;18.03;100.00
54503;BME280;40411;50.090;21.954;2023-07-20T00:38:12;10621.84;;;18.11;100.00
54503;BME280;40411;50.090;21.954;2023-07-20T00:40:39;10620.69;;;18.06;100.00
54503;BME280;40411;50.090;21.954;2023-07-20T00:43:06;10621.72;;;18.11;100.00
54503;BME280;40411;50.090;21.954;2023-07-20T00:45:33;10289.75;;;18.18;100.00
54503;BME280;40411;50.090;21.954;2023-07-20T00:48:01;10623.00;;;18.16;100.00
54503;BME280;40411;50.090;21.954;2023-07-20T00:50:28;10623.34;;;18.18;100.00
54503;BME280;40411;50.090;21.954;2023-07-20T00:52:55;10956.50;;;18.16;100.00
54503;BME280;40411;50.090;21.954;2023-07-20T00:55:21;10955.53;;;18.12;100.00
54503;BME280;40411;50.090;21.954;2023-07-20T00:57:48;11286.13;;;17.99;100.00
54503;BME280;40411;50.090;21.954;2023-07-20T01:00:14;10954.72;;;18.08;100.00
54503;BME280;40411;50.090;21.954;2023-07-20T01:02:40;10623.00;;;18.16;100.00
54503;BME280;40411;50.090;21.954;2023-07-20T01:05:06;10291.66;;;18.26;100.00
54503;BME280;40411;50.090;21.954;2023-07-20T01:07:37;9960.28;;;18.37;100.00
54503;BME280;40411;50.090;21.954;2023-07-20T01:12:52;9632.88;;;18.66;100.00
54503;BME280;40411;50.090;21.954;2023-07-20T01:15:18;9631.91;;;18.62;100.00
54503;BME280;40411;50.090;21.954;2023-07-20T01:17:44;9963.81;;;18.53;100.00
54503;BME280;40411;50.090;21.954;2023-07-20T01:20:15;9962.38;;;18.46;100.00
54503;BME280;40411;50.090;21.954;2023-07-20T01:23:05;9630.72;;;18.56;100.00
54503;BME280;40411;50.090;21.954;2023-07-20T01:31:30;9962.91;;;18.49;100.00
54503;BME280;40411;50.090;21.954;2023-07-20T01:34:00;9963.81;;;18.53;100.00
54503;BME280;40411;50.090;21.954;2023-07-20T01:36:30;9632.34;;;18.64;100.00
54503;BME280;40411;50.090;21.954;2023-07-20T01:38:57;9966.00;;;18.63;100.00
54503;BME280;40411;50.090;21.954;2023-07-20T01:41:23;10295.50;;;18.44;100.00
54503;BME280;40411;50.090;21.954;2023-07-20T01:43:49;10628.56;;;18.41;100.00
54503;BME280;40411;50.090;21.954;2023-07-20T01:46:15;10959.56;;;18.29;100.00
54503;BME280;40411;50.090;21.954;2023-07-20T01:48:41;10958.75;;;18.25;100.00
54503;BME280;40411;50.090;21.954;2023-07-20T01:51:08;11289.75;;;18.14;100.00
54503;BME280;40411;50.090;21.954;2023-07-20T01:53:34;12283.09;;;17.83;100.00
54503;BME280;40411;50.090;21.954;2023-07-20T01:55:59;12612.59;;;17.68;100.00
54503;BME280;40411;50.090;21.954;2023-07-20T01:58:25;12614.69;;;17.76;100.00
54503;BME280;40411;50.090;21.954;2023-07-20T02:00:51;11945.84;;;17.69;100.00
54503;BME280;40411;50.090;21.954;2023-07-20T02:03:18;11949.53;;;17.83;100.00
54503;BME280;40411;50.090;21.954;2023-07-20T02:05:45;11619.22;;;17.97;100.00
54503;BME280;40411;50.090;21.954;2023-07-20T02:08:11;11285.91;;;17.98;100.00
54503;BME280;40411;50.090;21.954;2023-07-20T02:10:36;11286.13;;;17.99;100.00
54503;BME280;40411;50.090;21.954;2023-07-20T02:13:02;11947.75;;;17.76;100.00
54503;BME280;40411;50.090;21.954;2023-07-20T02:15:28;12281.53;;;17.77;100.00
54503;BME280;40411;50.090;21.954;2023-07-20T02:17:54;12280.88;;;17.75;100.00
54503;BME280;40411;50.090;21.954;2023-07-20T02:20:20;12611.41;;;17.63;100.00
54503;BME280;40411;50.090;21.954;2023-07-20T02:22:46;11946.25;;;17.70;100.00
54503;BME280;40411;50.090;21.954;2023-07-20T02:25:12;11946.38;;;17.71;100.00
54503;BME280;40411;50.090;21.954;2023-07-20T02:27:38;12279.34;;;17.69;100.00
54503;BME280;40411;50.090;21.954;2023-07-20T02:30:05;12277.66;;;17.62;100.00
54503;BME280;40411;50.090;21.954;2023-07-20T02:32:31;11945.59;;;17.68;100.00
54503;BME280;40411;50.090;21.954;2023-07-20T02:34:58;12605.72;;;17.41;100.00
54503;BME280;40411;50.090;21.954;2023-07-20T02:37:24;12935.50;;;17.27;100.00
54503;BME280;40411;50.090;21.954;2023-07-20T02:39:50;12602.72;;;17.29;100.00
54503;BME280;40411;50.090;21.954;2023-07-20T02:42:16;12932.94;;;17.17;100.00
54503;BME280;40411;50.090;21.954;2023-07-20T02:44:42;13263.38;;;17.07;100.00
54503;BME280;40411;50.090;21.954;2023-07-20T02:47:08;13262.81;;;17.05;100.00
54503;BME280;40411;50.090;21.954;2023-07-20T02:49:34;13262.13;;;17.02;100.00
54503;BME280;40411;50.090;21.954;2023-07-20T02:52:00;13594.53;;;16.99;100.00
54503;BME280;40411;50.090;21.954;2023-07-20T02:54:26;13593.84;;;16.96;100.00
54503;BME280;40411;50.090;21.954;2023-07-20T02:56:52;13593.44;;;16.95;100.00
54503;BME280;40411;50.090;21.954;2023-07-20T02:59:18;13261.44;;;17.00;100.00
54503;BME280;40411;50.090;21.954;2023-07-20T03:01:44;13594.69;;;17.00;100.00
54503;BME280;40411;50.090;21.954;2023-07-20T03:04:10;13594.69;;;17.00;100.00
54503;BME280;40411;50.090;21.954;2023-07-20T03:06:36;13924.53;;;16.87;100.00
54503;BME280;40411;50.090;21.954;2023-07-20T03:09:03;14255.13;;;16.78;100.00
54503;BME280;40411;50.090;21.954;2023-07-20T03:11:29;14254.84;;;16.77;100.00
54503;BME280;40411;50.090;21.954;2023-07-20T03:13:56;14585.97;;;16.70;100.00
54503;BME280;40411;50.090;21.954;2023-07-20T03:16:23;14585.38;;;16.68;100.00
54503;BME280;40411;50.090;21.954;2023-07-20T03:18:52;14251.22;;;16.64;100.00
54503;BME280;40411;50.090;21.954;2023-07-20T03:21:18;13591.88;;;16.89;100.00
54503;BME280;40411;50.090;21.954;2023-07-20T03:23:44;13261.72;;;17.01;100.00
54503;BME280;40411;50.090;21.954;2023-07-20T03:26:10;13262.69;;;17.04;100.00
54503;BME280;40411;50.090;21.954;2023-07-20T03:28:37;12600.06;;;17.19;100.00
54503;BME280;40411;50.090;21.954;2023-07-20T03:31:03;11939.41;;;17.42;100.00
54503;BME280;40411;50.090;21.954;2023-07-20T03:33:32;11607.97;;;17.50;100.00
54503;BME280;40411;50.090;21.954;2023-07-20T03:35:59;11609.56;;;17.57;100.00
54503;BME280;40411;50.090;21.954;2023-07-20T03:38:26;11278.50;;;17.67;100.00
54503;BME280;40411;50.090;21.954;2023-07-20T03:40:53;10614.78;;;17.80;100.00
54503;BME280;40411;50.090;21.954;2023-07-20T03:43:20;10284.31;;;17.93;100.00
54503;BME280;40411;50.090;21.954;2023-07-20T03:45:46;10285.47;;;17.98;100.00
54503;BME280;40411;50.090;21.954;2023-07-20T03:48:15;9953.22;;;18.04;100.00
54503;BME280;40411;50.090;21.954;2023-07-20T03:50:46;9622.97;;;18.19;100.00
54503;BME280;40411;50.090;21.954;2023-07-20T03:53:13;9291.56;;;18.29;100.00
54503;BME280;40411;50.090;21.954;2023-07-20T03:55:40;8960.16;;;18.40;100.00
54503;BME280;40411;50.090;21.954;2023-07-20T03:58:09;8960.69;;;18.43;100.00
54503;BME280;40411;50.090;21.954;2023-07-20T04:00:35;8296.56;;;18.59;100.00
54503;BME280;40411;50.090;21.954;2023-07-20T04:03:01;7965.41;;;18.72;100.00
54503;BME280;40411;50.090;21.954;2023-07-20T04:05:27;7301.53;;;18.91;100.00
54503;BME280;40411;50.090;21.954;2023-07-20T04:07:53;7301.63;;;18.92;100.00
54503;BME280;40411;50.090;21.954;2023-07-20T04:10:19;7966.06;;;18.75;100.00
54503;BME280;40411;50.090;21.954;2023-07-20T04:12:45;7967.13;;;18.81;100.00
54503;BME280;40411;50.090;21.954;2023-07-20T04:15:13;8633.28;;;18.74;100.00
54503;BME280;40411;50.090;21.954;2023-07-20T04:17:40;7967.78;;;18.85;100.00
54503;BME280;40411;50.090;21.954;2023-07-20T04:20:07;7970.22;;;18.98;100.00
54503;BME280;40411;50.090;21.954;2023-07-20T04:22:33;7970.03;;;18.97;100.00
54503;BME280;40411;50.090;21.954;2023-07-20T04:24:59;7639.75;;;19.16;100.00
54503;BME280;40411;50.090;21.954;2023-07-20T04:27:25;7638.00;;;19.07;100.00
54503;BME280;40411;50.090;21.954;2023-07-20T04:29:52;7972.50;;;19.10;100.00
54503;BME280;40411;50.090;21.954;2023-07-20T04:32:18;8302.69;;;18.91;100.00
54503;BME280;40411;50.090;21.954;2023-07-20T04:34:44;8303.75;;;18.96;100.00
54503;BME280;40411;50.090;21.954;2023-07-20T04:37:09;8302.97;;;18.92;100.00
54503;BME280;40411;50.090;21.954;2023-07-20T04:39:35;8636.19;;;18.89;100.00
54503;BME280;40411;50.090;21.954;2023-07-20T04:42:06;8635.69;;;18.87;100.00
54503;BME280;40411;50.090;21.954;2023-07-20T04:44:32;8634.28;;;18.80;100.00
54503;BME280;40411;50.090;21.954;2023-07-20T04:46:58;8966.00;;;18.69;100.00
54503;BME280;40411;50.090;21.954;2023-07-20T04:49:24;8303.47;;;18.95;100.00
54503;BME280;40411;50.090;21.954;2023-07-20T04:51:50;8302.50;;;18.90;100.00
54503;BME280;40411;50.090;21.954;2023-07-20T04:54:17;8303.38;;;18.94;100.00
54503;BME280;40411;50.090;21.954;2023-07-20T04:56:44;8636.69;;;18.92;100.00
54503;BME280;40411;50.090;21.954;2023-07-20T04:59:11;8636.69;;;18.92;100.00
54503;BME280;40411;50.090;21.954;2023-07-20T05:01:37;9301.44;;;18.78;100.00
54503;BME280;40411;50.090;21.954;2023-07-20T05:04:03;9299.66;;;18.69;100.00
54503;BME280;40411;50.090;21.954;2023-07-20T05:06:29;8967.97;;;18.79;100.00
54503;BME280;40411;50.090;21.954;2023-07-20T05:08:55;9299.34;;;18.67;100.00
54503;BME280;40411;50.090;21.954;2023-07-20T05:11:21;8965.41;;;18.66;100.00
54503;BME280;40411;50.090;21.954;2023-07-20T05:13:47;9627.38;;;18.40;100.00
54503;BME280;40411;50.090;21.954;2023-07-20T05:16:13;9627.28;;;18.40;100.00
54503;BME280;40411;50.090;21.954;2023-07-20T05:18:39;9961.38;;;18.42;100.00
54503;BME280;40411;50.090;21.954;2023-07-20T05:21:05;9959.38;;;18.33;100.00
54503;BME280;40411;50.090;21.954;2023-07-20T05:23:31;9297.25;;;18.57;100.00
54503;BME280;40411;50.090;21.954;2023-07-20T05:25:59;9629.00;;;18.48;100.00
54503;BME280;40411;50.090;21.954;2023-07-20T05:28:26;8964.88;;;18.64;100.00
54503;BME280;40411;50.090;21.954;2023-07-20T05:30:52;9296.19;;;18.52;100.00
54503;BME280;40411;50.090;21.954;2023-07-20T05:33:19;9295.97;;;18.51;100.00
54503;BME280;40411;50.090;21.954;2023-07-20T05:35:46;8964.69;;;18.63;100.00
54503;BME280;40411;50.090;21.954;2023-07-20T05:38:12;9296.91;;;18.56;100.00
54503;BME280;40411;50.090;21.954;2023-07-20T05:40:40;9297.25;;;18.57;100.00
54503;BME280;40411;50.090;21.954;2023-07-20T05:43:06;9295.34;;;18.48;100.00
54503;BME280;40411;50.090;21.954;2023-07-20T05:45:32;9625.78;;;18.33;100.00
54503;BME280;40411;50.090;21.954;2023-07-20T05:47:58;9624.69;;;18.27;100.00
54503;BME280;40411;50.090;21.954;2023-07-20T05:50:24;9294.72;;;18.45;100.00
54503;BME280;40411;50.090;21.954;2023-07-20T05:52:52;9293.47;;;18.39;100.00
54503;BME280;40411;50.090;21.954;2023-07-20T05:55:18;9292.94;;;18.36;100.00
54503;BME280;40411;50.090;21.954;2023-07-20T05:57:44;8962.44;;;18.51;100.00
54503;BME280;40411;50.090;21.954;2023-07-20T06:00:10;8631.59;;;18.66;100.00
54503;BME280;40411;50.090;21.954;2023-07-20T06:02:38;7966.75;;;18.79;100.00
54503;BME280;40411;50.090;21.954;2023-07-20T06:05:04;7636.09;;;18.96;100.00
54503;BME280;40411;50.090;21.954;2023-07-20T06:07:30;8298.69;;;18.70;100.00
54503;BME280;40411;50.090;21.954;2023-07-20T06:09:57;7968.25;;;18.87;100.00
54503;BME280;40411;50.090;21.954;2023-07-20T06:12:23;7969.00;;;18.91;100.00
54503;BME280;40411;50.090;21.954;2023-07-20T06:14:49;7635.81;;;18.94;100.00
54503;BME280;40411;50.090;21.954;2023-07-20T06:17:15;5976.75;;;19.55;100.00
54503;BME280;40411;50.090;21.954;2023-07-20T06:19:41;4979.78;;;19.89;100.00
54503;BME280;40411;50.090;21.954;2023-07-20T06:22:07;4648.38;;;20.08;100.00
54503;BME280;40411;50.090;21.954;2023-07-20T06:24:33;4982.25;;;20.07;100.00
54503;BME280;40411;50.090;21.954;2023-07-20T06:26:59;6313.63;;;19.74;100.00
54503;BME280;40411;50.090;21.954;2023-07-20T06:29:25;7310.19;;;19.41;100.00
54503;BME280;40411;50.090;21.954;2023-07-20T06:31:51;6644.66;;;19.55;100.00
54503;BME280;40411;50.090;21.954;2023-07-20T06:34:17;7639.94;;;19.17;100.00
54503;BME280;40411;50.090;21.954;2023-07-20T06:36:42;8301.31;;;18.84;100.00
54503;BME280;40411;50.090;21.954;2023-07-20T06:39:08;8634.69;;;18.82;100.00
54503;BME280;40411;50.090;21.954;2023-07-20T06:41:34;8630.09;;;18.58;100.00
54503;BME280;40411;50.090;21.954;2023-07-20T06:44:00;8297.06;;;18.61;100.00
54503;BME280;40411;50.090;21.954;2023-07-20T06:46:26;8963.03;;;18.54;100.00
54503;BME280;40411;50.090;21.954;2023-07-20T06:48:52;8299.97;;;18.77;100.00
54503;BME280;40411;50.090;21.954;2023-07-20T06:51:17;8963.13;;;18.55;100.00
54503;BME280;40411;50.090;21.954;2023-07-20T06:53:43;9624.91;;;18.28;100.00
54503;BME280;40411;50.090;21.954;2023-07-20T06:56:09;9294.59;;;18.44;100.00
54503;BME280;40411;50.090;21.954;2023-07-20T06:58:35;9627.19;;;18.39;100.00
54503;BME280;40411;50.090;21.954;2023-07-20T07:01:07;10619.41;;;18.00;100.00
54503;BME280;40411;50.090;21.954;2023-07-20T07:03:34;10948.69;;;17.82;100.00
54503;BME280;40411;50.090;21.954;2023-07-20T07:06:00;10950.81;;;17.91;100.00
54503;BME280;40411;50.090;21.954;2023-07-20T07:08:26;9956.53;;;18.19;100.00
54503;BME280;40411;50.090;21.954;2023-07-20T07:10:52;9954.97;;;18.12;100.00
54503;BME280;40411;50.090;21.954;2023-07-20T07:13:19;9957.19;;;18.22;100.00
54503;BME280;40411;50.090;21.954;2023-07-20T07:15:45;9625.13;;;18.29;100.00
54503;BME280;40411;50.090;21.954;2023-07-20T07:18:11;9955.97;;;18.17;100.00
54503;BME280;40411;50.090;21.954;2023-07-20T07:20:37;10620.00;;;18.03;100.00
54503;BME280;40411;50.090;21.954;2023-07-20T07:23:03;10287.81;;;18.09;100.00
54503;BME280;40411;50.090;21.954;2023-07-20T07:25:29;10287.94;;;18.09;100.00
54503;BME280;40411;50.090;21.954;2023-07-20T07:27:55;10620.44;;;18.05;100.00
54503;BME280;40411;50.090;21.954;2023-07-20T07:30:22;10618.38;;;17.96;100.00
54503;BME280;40411;50.090;21.954;2023-07-20T07:32:48;10952.00;;;17.96;100.00
54503;BME280;40411;50.090;21.954;2023-07-20T07:35:14;10951.28;;;17.93;100.00
54503;BME280;40411;50.090;21.954;2023-07-20T07:37:40;10949.03;;;17.83;100.00
54503;BME280;40411;50.090;21.954;2023-07-20T07:40:06;10286.69;;;18.04;100.00
54503;BME280;40411;50.090;21.954;2023-07-20T07:42:33;10949.28;;;17.84;100.00
54503;BME280;40411;50.090;21.954;2023-07-20T07:44:59;10617.66;;;17.93;100.00
54503;BME280;40411;50.090;21.954;2023-07-20T07:47:25;10288.84;;;18.14;100.00
54503;BME280;40411;50.090;21.954;2023-07-20T07:49:50;10621.84;;;18.11;100.00
54503;BME280;40411;50.090;21.954;2023-07-20T07:52:16;9956.53;;;18.19;100.00
54503;BME280;40411;50.090;21.954;2023-07-20T07:54:42;9956.06;;;18.17;100.00
54503;BME280;40411;50.090;21.954;2023-07-20T07:57:08;9622.31;;;18.16;100.00
54503;BME280;40411;50.090;21.954;2023-07-20T07:59:35;9291.47;;;18.29;100.00
54503;BME280;40411;50.090;21.954;2023-07-20T08:02:06;9292.63;;;18.35;100.00
54503;BME280;40411;50.090;21.954;2023-07-20T08:04:32;9294.28;;;18.43;100.00
54503;BME280;40411;50.090;21.954;2023-07-20T08:06:59;9294.19;;;18.42;100.00
54503;BME280;40411;50.090;21.954;2023-07-20T08:09:25;9623.72;;;18.23;100.00
54503;BME280;40411;50.090;21.954;2023-07-20T08:11:51;10618.84;;;17.98;100.00
54503;BME280;40411;50.090;21.954;2023-07-20T08:14:17;9294.50;;;18.44;100.00
54503;BME280;40411;50.090;21.954;2023-07-20T08:16:43;7967.22;;;18.82;100.00
54503;BME280;40411;50.090;21.954;2023-07-20T08:19:09;6970.53;;;19.07;100.00
54503;BME280;40411;50.090;21.954;2023-07-20T08:21:35;7304.47;;;19.08;100.00
54503;BME280;40411;50.090;21.954;2023-07-20T08:24:00;8300.44;;;18.79;100.00
54503;BME280;40411;50.090;21.954;2023-07-20T08:26:26;7640.13;;;19.18;100.00
54503;BME280;40411;50.090;21.954;2023-07-20T08:28:52;6974.69;;;19.32;100.00
54503;BME280;40411;50.090;21.954;2023-07-20T08:31:18;4318.66;;;20.43;100.00
54503;BME280;40411;50.090;21.954;2023-07-20T08:33:44;-678.22;;;23.10;100.00
54503;BME280;40411;50.090;21.954;2023-07-20T08:36:10;-676.00;;;23.54;98.73
54503;BME280;40411;50.090;21.954;2023-07-20T08:38:35;-336.38;;;24.28;90.49
54503;BME280;40411;50.090;21.954;2023-07-20T08:41:01;2669.94;;;22.59;96.76
54503;BME280;40411;50.090;21.954;2023-07-20T08:43:28;-338.44;;;23.91;94.30
54503;BME280;40411;50.090;21.954;2023-07-20T08:45:55;-342.03;;;23.28;100.00
54503;BME280;40411;50.090;21.954;2023-07-20T08:48:22;1333.78;;;23.13;95.69
54503;BME280;40411;50.090;21.954;2023-07-20T08:50:51;666.72;;;23.64;91.59
54503;BME280;40411;50.090;21.954;2023-07-20T08:53:16;-668.03;;;25.09;84.91
54503;BME280;40411;50.090;21.954;2023-07-20T08:55:48;2675.78;;;23.15;93.54
54503;BME280;40411;50.090;21.954;2023-07-20T08:58:15;1339.25;;;23.80;89.28
54503;BME280;40411;50.090;21.954;2023-07-20T09:00:43;1005.72;;;24.08;88.36
54503;BME280;40411;50.090;21.954;2023-07-20T09:03:11;4015.19;;;22.92;89.75
54503;BME280;40411;50.090;21.954;2023-07-20T09:05:37;3679.19;;;22.88;92.85
54503;BME280;40411;50.090;21.954;2023-07-20T09:08:04;2347.13;;;23.85;86.76
54503;BME280;40411;50.090;21.954;2023-07-20T09:10:31;1005.28;;;24.02;90.65
54503;BME280;40411;50.090;21.954;2023-07-20T09:12:57;1676.72;;;23.99;88.91
54503;BME280;40411;50.090;21.954;2023-07-20T09:15:24;1676.94;;;24.02;87.53
54503;BME280;40411;50.090;21.954;2023-07-20T09:17:50;2678.47;;;23.41;91.66
54503;BME280;40411;50.090;21.954;2023-07-20T09:20:17;3343.06;;;22.82;93.92
54503;BME280;40411;50.090;21.954;2023-07-20T09:22:44;339.69;;;24.92;82.75
54503;BME280;40411;50.090;21.954;2023-07-20T09:25:15;1678.78;;;24.23;85.07
54503;BME280;40411;50.090;21.954;2023-07-20T09:27:42;4017.28;;;23.09;90.36
54503;BME280;40411;50.090;21.954;2023-07-20T09:30:09;670.19;;;24.13;90.43
54503;BME280;40411;50.090;21.954;2023-07-20T09:32:49;-4365.59;;;26.50;86.50
54503;BME280;40411;50.090;21.954;2023-07-20T09:35:21;-4028.88;;;27.54;75.36
54503;BME280;40411;50.090;21.954;2023-07-20T09:37:49;-3691.28;;;28.12;71.36
54503;BME280;40411;50.090;21.954;2023-07-20T09:40:18;-4704.13;;;28.46;72.75
54503;BME280;40411;50.090;21.954;2023-07-20T09:42:45;-4366.50;;;28.56;71.18
54503;BME280;40411;50.090;21.954;2023-07-20T09:45:11;17.47;;;27.15;68.50
54503;BME280;40411;50.090;21.954;2023-07-20T09:47:37;14.69;;;26.71;73.37
54503;BME280;40411;50.090;21.954;2023-07-20T09:50:05;349.44;;;26.36;75.04
54503;BME280;40411;50.090;21.954;2023-07-20T09:52:40;-660.59;;;26.51;76.41
54503;BME280;40411;50.090;21.954;2023-07-20T09:55:07;-2341.75;;;27.78;72.25
54503;BME280;40411;50.090;21.954;2023-07-20T09:57:34;-1331.50;;;27.22;72.72
54503;BME280;40411;50.090;21.954;2023-07-20T10:00:01;-3353.63;;;28.19;71.42
54503;BME280;40411;50.090;21.954;2023-07-20T10:02:33;-3015.00;;;28.78;66.23
54503;BME280;40411;50.090;21.954;2023-07-20T10:05:03;360.09;;;27.91;61.68
54503;BME280;40411;50.090;21.954;2023-07-20T10:07:35;-991.53;;;27.77;68.95
54503;BME280;40411;50.090;21.954;2023-07-20T10:10:04;4051.19;;;25.80;69.79
54503;BME280;40411;50.090;21.954;2023-07-20T10:12:33;4718.00;;;25.27;72.16
54503;BME280;40411;50.090;21.954;2023-07-20T10:15:16;352.97;;;26.87;72.22
54503;BME280;40411;50.090;21.954;2023-07-20T10:17:53;3376.38;;;25.73;72.93
54503;BME280;40411;50.090;21.954;2023-07-20T10:20:23;5383.81;;;24.73;75.59
54503;BME280;40411;50.090;21.954;2023-07-20T10:22:53;4708.78;;;24.59;78.64
54503;BME280;40411;50.090;21.954;2023-07-20T10:25:22;4379.00;;;25.10;73.54
54503;BME280;40411;50.090;21.954;2023-07-20T10:27:48;2696.69;;;25.17;79.70
54503;BME280;40411;50.090;21.954;2023-07-20T10:30:15;5050.78;;;24.98;74.01
54503;BME280;40411;50.090;21.954;2023-07-20T10:32:42;-1667.25;;;27.63;70.94
54503;BME280;40411;50.090;21.954;2023-07-20T10:35:16;-649.84;;;28.54;62.09
54503;BME280;40411;50.090;21.954;2023-07-20T10:40:27;4052.72;;;25.93;69.42
54503;BME280;40411;50.090;21.954;2023-07-20T10:43:07;5392.94;;;25.35;71.19
54503;BME280;40411;50.090;21.954;2023-07-20T10:45:34;6724.38;;;24.37;75.91
54503;BME280;40411;50.090;21.954;2023-07-20T10:48:03;6050.72;;;24.33;77.69
54503;BME280;40411;50.090;21.954;2023-07-20T10:50:30;6717.41;;;23.95;79.80
54503;BME280;40411;50.090;21.954;2023-07-20T10:53:14;8056.84;;;23.63;77.86
54503;BME280;40411;50.090;21.954;2023-07-20T10:55:41;3700.34;;;24.65;82.34
54503;BME280;40411;50.090;21.954;2023-07-20T10:58:13;4706.28;;;24.40;81.21
54503;BME280;40411;50.090;21.954;2023-07-20T11:03:34;7382.97;;;23.55;80.24
54503;BME280;40411;50.090;21.954;2023-07-20T11:08:55;4374.88;;;24.78;78.38
54503;BME280;40411;50.090;21.954;2023-07-20T11:11:30;1354.13;;;25.59;79.53
54503;BME280;40411;50.090;21.954;2023-07-20T11:14:03;5726.97;;;25.16;71.32
54503;BME280;40411;50.090;21.954;2023-07-20T11:16:41;4044.84;;;25.30;76.15
54503;BME280;40411;50.090;21.954;2023-07-20T11:21:42;4046.88;;;25.46;72.72
54503;BME280;40411;50.090;21.954;2023-07-20T11:24:10;1359.25;;;26.20;74.15
54503;BME280;40411;50.090;21.954;2023-07-20T11:26:40;-657.47;;;27.10;73.58
54503;BME280;40411;50.090;21.954;2023-07-20T11:29:06;356.19;;;27.34;68.11
54503;BME280;40411;50.090;21.954;2023-07-20T11:31:35;355.03;;;27.17;68.16
54503;BME280;40411;50.090;21.954;2023-07-20T11:34:01;2714.31;;;26.85;66.61
54503;BME280;40411;50.090;21.954;2023-07-20T11:36:27;3721.19;;;26.39;66.73
54503;BME280;40411;50.090;21.954;2023-07-20T11:38:53;1364.59;;;26.84;70.53
54503;BME280;40411;50.090;21.954;2023-07-20T11:41:19;17.31;;;27.12;71.79
54503;BME280;40411;50.090;21.954;2023-07-20T11:43:45;22.06;;;27.87;65.67
54503;BME280;40411;50.090;21.954;2023-07-20T11:46:11;2043.22;;;27.25;65.08
54503;BME280;40411;50.090;21.954;2023-07-20T11:48:37;2718.03;;;27.21;64.30
54503;BME280;40411;50.090;21.954;2023-07-20T11:51:03;3052.34;;;26.90;65.54
54503;BME280;40411;50.090;21.954;2023-07-20T11:53:29;1704.50;;;27.12;66.78
54503;BME280;40411;50.090;21.954;2023-07-20T11:55:55;360.22;;;27.93;64.40
54503;BME280;40411;50.090;21.954;2023-07-20T11:58:21;-649.72;;;28.56;63.18
54503;BME280;40411;50.090;21.954;2023-07-20T12:00:47;26.97;;;28.64;60.29
54503;BME280;40411;50.090;21.954;2023-07-20T12:03:13;1375.66;;;28.15;60.45
54503;BME280;40411;50.090;21.954;2023-07-20T12:05:39;1038.34;;;28.23;61.23
54503;BME280;40411;50.090;21.954;2023-07-20T12:08:05;3063.78;;;27.94;57.86
54503;BME280;40411;50.090;21.954;2023-07-20T12:10:31;698.31;;;27.96;63.71
54503;BME280;40411;50.090;21.954;2023-07-20T12:13:03;-647.78;;;28.92;60.72
54503;BME280;40411;50.090;21.954;2023-07-20T12:15:29;-309.44;;;28.93;60.17
54503;BME280;40411;50.090;21.954;2023-07-20T12:17:57;-983.75;;;29.38;58.91
54503;BME280;40411;50.090;21.954;2023-07-20T12:20:34;1045.25;;;29.10;55.34
54503;BME280;40411;50.090;21.954;2023-07-20T12:23:04;1379.81;;;28.64;58.19
54503;BME280;40411;50.090;21.954;2023-07-20T12:25:42;4076.31;;;27.80;58.31
54503;BME280;40411;50.090;21.954;2023-07-20T12:28:16;3737.09;;;27.70;58.05
54503;BME280;40411;50.090;21.954;2023-07-20T12:30:44;1039.44;;;28.37;61.14
54503;BME280;40411;50.090;21.954;2023-07-20T12:33:10;3401.00;;;27.87;58.46
54503;BME280;40411;50.090;21.954;2023-07-20T12:35:37;6426.88;;;26.78;59.78
54503;BME280;40411;50.090;21.954;2023-07-20T12:38:03;2719.75;;;27.37;65.81
54503;BME280;40411;50.090;21.954;2023-07-20T12:40:30;4733.66;;;26.42;66.44
54503;BME280;40411;50.090;21.954;2023-07-20T12:42:57;4066.56;;;27.03;63.59
54503;BME280;40411;50.090;21.954;2023-07-20T12:45:23;1376.69;;;28.27;61.46
54503;BME280;40411;50.090;21.954;2023-07-20T12:47:50;2388.84;;;28.05;60.07
54503;BME280;40411;50.090;21.954;2023-07-20T12:50:15;-648.81;;;28.72;64.18
54503;BME280;40411;50.090;21.954;2023-07-20T12:52:41;2056.63;;;28.66;56.21
54503;BME280;40411;50.090;21.954;2023-07-20T12:55:08;1380.16;;;28.68;58.83
54503;BME280;40411;50.090;21.954;2023-07-20T12:57:35;3408.56;;;28.51;54.04
54503;BME280;40411;50.090;21.954;2023-07-20T13:00:05;4752.81;;;27.82;56.71
54503;BME280;40411;50.090;21.954;2023-07-20T13:02:33;5756.03;;;27.08;59.21
54503;BME280;40411;50.090;21.954;2023-07-20T13:04:59;4412.53;;;27.66;58.83
54503;BME280;40411;50.090;21.954;2023-07-20T13:07:35;6425.94;;;26.72;61.46
54503;BME280;40411;50.090;21.954;2023-07-20T13:10:03;8768.94;;;25.63;63.45